Time;durP1;ratioP1;P1;durP2;ratioP2;P2;SDS_P1;SDS_P2;PMS_P1;PMS_P2;Temp;Humidity;BMP_temperature;BMP_pressure;BME280_temperature;BME280_humidity;BME280_pressure;Samples;Min_cycle;Max_cycle;Signal;HPM_P1;HPM_P2
2022/07/19 00:01:26;;;;;;;;;;;;;;;19.35;60.27;100323.00;4473848;32;20297;-92
2022/07/19 00:03:51;;;;;;;;;;;;;;;19.33;60.27;100320.44;4489463;32;19988;-91
2022/07/19 00:06:16;;;;;;;;;;;;;;;19.37;60.26;100329.88;4488263;32;20006;-90
2022/07/19 00:08:42;;;;;;;;;;;;;;;19.31;60.27;100322.34;4477501;32;19999;-90
2022/07/19 00:11:07;;;;;;;;;;;;;;;19.21;60.27;100326.47;4476913;32;20020;-92
2022/07/19 00:13:32;;;;;;;;;;;;;;;19.19;60.26;100326.56;4472791;32;19992;-91
2022/07/19 00:15:57;;;;;;;;;;;;;;;19.13;60.26;100326.91;4473028;32;19985;-91
2022/07/19 00:18:23;;;;;;;;;;;;;;;19.29;60.25;100329.50;4486119;32;20298;-91
2022/07/19 00:20:48;;;;;;;;;;;;;;;19.31;60.27;100328.47;4486424;32;19977;-91
2022/07/19 00:23:13;;;;;;;;;;;;;;;19.22;60.27;100329.00;4486168;32;19999;-91
2022/07/19 00:25:38;;;;;;;;;;;;;;;19.23;60.26;100324.59;4473069;32;19984;-91
2022/07/19 00:28:04;;;;;;;;;;;;;;;18.90;60.24;100322.09;4473072;32;20289;-91
2022/07/19 00:30:29;;;;;;;;;;;;;;;19.29;60.26;100321.56;4473203;32;19996;-90
2022/07/19 00:32:54;;;;;;;;;;;;;;;19.19;60.26;100318.63;4473056;32;20107;-91
2022/07/19 00:35:19;;;;;;;;;;;;;;;19.02;60.25;100322.25;4486330;32;20037;-91
2022/07/19 00:37:45;;;;;;;;;;;;;;;19.13;60.25;100324.25;4486128;31;20219;-91
2022/07/19 00:40:10;;;;;;;;;;;;;;;19.29;60.26;100319.78;4474537;32;20021;-91
2022/07/19 00:42:35;;;;;;;;;;;;;;;19.16;60.25;100318.78;4473274;32;20349;-91
2022/07/19 00:45:01;;;;;;;;;;;;;;;19.09;60.26;100321.87;4472616;32;20002;-91
2022/07/19 00:47:26;;;;;;;;;;;;;;;19.20;60.25;100322.97;4472600;32;20302;-91
2022/07/19 00:49:51;;;;;;;;;;;;;;;19.33;60.27;100328.37;4472902;32;20289;-91
2022/07/19 00:52:17;;;;;;;;;;;;;;;19.07;60.24;100329.03;4472729;32;20065;-91
2022/07/19 00:54:42;;;;;;;;;;;;;;;19.00;60.25;100332.03;4472798;32;19977;-91
2022/07/19 00:57:07;;;;;;;;;;;;;;;19.14;60.26;100333.88;4472702;32;20269;-91
2022/07/19 00:59:32;;;;;;;;;;;;;;;19.11;60.25;100326.13;4474184;32;20022;-91
2022/07/19 01:01:58;;;;;;;;;;;;;;;19.30;60.26;100332.03;4486687;32;20329;-91
2022/07/19 01:04:23;;;;;;;;;;;;;;;19.08;60.26;100333.38;4472442;32;19976;-91
2022/07/19 01:06:48;;;;;;;;;;;;;;;18.99;60.25;100329.50;4485643;32;19961;-91
2022/07/19 01:09:13;;;;;;;;;;;;;;;18.90;60.25;100322.94;4472456;32;20004;-91
2022/07/19 01:11:39;;;;;;;;;;;;;;;18.82;60.23;100329.59;4472406;32;20007;-91
2022/07/19 01:14:04;;;;;;;;;;;;;;;18.75;60.23;100320.34;4472517;32;20309;-91
2022/07/19 01:16:29;;;;;;;;;;;;;;;18.74;60.23;100322.13;4485751;32;19999;-91
2022/07/19 01:18:55;;;;;;;;;;;;;;;18.73;60.23;100322.22;4472152;32;20064;-91
2022/07/19 01:21:20;;;;;;;;;;;;;;;18.83;60.23;100320.75;4473740;32;19992;-91
2022/07/19 01:23:46;;;;;;;;;;;;;;;18.89;60.24;100329.16;4488445;32;19976;-91
2022/07/19 01:26:11;;;;;;;;;;;;;;;18.91;60.23;100313.25;4475621;32;20019;-91
2022/07/19 01:28:36;;;;;;;;;;;;;;;18.81;60.24;100322.63;4476426;32;19996;-91
2022/07/19 01:31:02;;;;;;;;;;;;;;;18.67;60.22;100321.59;4481226;32;19996;-90
2022/07/19 01:33:27;;;;;;;;;;;;;;;18.82;60.23;100312.00;4487631;32;20046;-90
2022/07/19 01:35:52;;;;;;;;;;;;;;;18.74;60.22;100318.66;4477768;32;19984;-91
2022/07/19 01:38:17;;;;;;;;;;;;;;;18.37;60.21;100323.28;4472324;32;21670;-92
2022/07/19 01:40:42;;;;;;;;;;;;;;;18.29;60.21;100317.59;4472785;32;20003;-91
2022/07/19 01:43:08;;;;;;;;;;;;;;;18.30;60.21;100311.37;4472817;32;20021;-91
2022/07/19 01:45:33;;;;;;;;;;;;;;;18.30;60.21;100308.75;4486413;32;20365;-92
2022/07/19 01:47:58;;;;;;;;;;;;;;;18.31;60.21;100311.31;4474757;32;20280;-91
2022/07/19 01:50:23;;;;;;;;;;;;;;;18.20;60.20;100311.03;4477424;32;20007;-90
2022/07/19 01:52:49;;;;;;;;;;;;;;;18.18;60.20;100305.00;4476667;32;20028;-92
2022/07/19 01:55:14;;;;;;;;;;;;;;;18.18;60.20;100301.50;4472300;32;20301;-91
2022/07/19 01:57:39;;;;;;;;;;;;;;;17.94;60.19;100306.31;4473765;32;20004;-91
2022/07/19 02:00:05;;;;;;;;;;;;;;;17.82;60.18;100309.62;4471916;32;20253;-91
2022/07/19 02:02:31;;;;;;;;;;;;;;;17.89;60.18;100311.84;4472255;32;20052;-91
2022/07/19 02:04:56;;;;;;;;;;;;;;;18.08;60.20;100315.19;4471984;32;19979;-91
2022/07/19 02:07:22;;;;;;;;;;;;;;;18.02;60.19;100318.16;4471922;32;20285;-91
2022/07/19 02:09:47;;;;;;;;;;;;;;;18.05;60.19;100312.72;4486232;31;20273;-92
2022/07/19 02:12:12;;;;;;;;;;;;;;;18.00;60.20;100308.66;4484900;32;19984;-92
2022/07/19 02:14:38;;;;;;;;;;;;;;;18.16;60.20;100306.00;4472029;32;19984;-92
2022/07/19 02:17:03;;;;;;;;;;;;;;;18.20;60.20;100311.03;4472005;32;19993;-92
2022/07/19 02:19:28;;;;;;;;;;;;;;;18.21;60.19;100317.16;4473290;32;19993;-92
2022/07/19 02:21:53;;;;;;;;;;;;;;;17.87;60.18;100318.97;4471682;32;20000;-92
2022/07/19 02:24:19;;;;;;;;;;;;;;;17.97;60.18;100325.44;4471599;32;19981;-92
2022/07/19 02:26:44;;;;;;;;;;;;;;;17.91;60.18;100322.28;4484616;32;19987;-92
2022/07/19 02:29:09;;;;;;;;;;;;;;;17.89;60.18;100319.75;4471391;32;20010;-93
2022/07/19 02:31:35;;;;;;;;;;;;;;;18.10;60.19;100318.59;4473075;32;19992;-92
2022/07/19 02:34:00;;;;;;;;;;;;;;;17.87;60.19;100324.25;4473826;32;19991;-91
2022/07/19 02:36:25;;;;;;;;;;;;;;;17.87;60.19;100318.13;4473859;32;20261;-92
2022/07/19 02:38:52;;;;;;;;;;;;;;;17.95;60.18;100321.19;4474095;32;19995;-93
2022/07/19 02:41:17;;;;;;;;;;;;;;;17.95;60.18;100322.03;4473760;32;20017;-91
2022/07/19 02:43:42;;;;;;;;;;;;;;;17.78;60.18;100330.00;4473621;32;20028;-92
2022/07/19 02:46:08;;;;;;;;;;;;;;;17.73;60.17;100316.19;4473783;32;20007;-92
2022/07/19 02:48:33;;;;;;;;;;;;;;;17.70;60.17;100326.91;4473784;32;19999;-93
2022/07/19 02:50:58;;;;;;;;;;;;;;;17.74;60.17;100317.91;4473630;32;19981;-92
2022/07/19 02:53:23;;;;;;;;;;;;;;;17.54;60.17;100326.81;4473947;32;19984;-92
2022/07/19 02:55:48;;;;;;;;;;;;;;;17.64;60.17;100322.78;4475916;32;20248;-92
2022/07/19 02:58:14;;;;;;;;;;;;;;;17.66;60.17;100326.19;4474247;32;20044;-92
2022/07/19 03:00:39;;;;;;;;;;;;;;;17.54;60.17;100325.97;4474887;32;19981;-92
2022/07/19 03:05:48;;;;;;;;;;;;;;;17.40;60.16;100326.66;4487216;32;20049;-91
2022/07/19 03:08:14;;;;;;;;;;;;;;;17.46;60.16;100324.56;4473599;32;20291;-92
2022/07/19 03:10:39;;;;;;;;;;;;;;;17.61;60.16;100332.63;4487205;32;19988;-92
2022/07/19 03:13:04;;;;;;;;;;;;;;;17.56;60.17;100324.13;4487000;32;19983;-92
2022/07/19 03:15:29;;;;;;;;;;;;;;;17.58;60.17;100335.41;4489522;32;20011;-92
2022/07/19 03:17:55;;;;;;;;;;;;;;;17.55;60.17;100333.78;4474180;32;19992;-92
2022/07/19 03:20:20;;;;;;;;;;;;;;;17.66;60.17;100330.59;4476785;32;19999;-92
2022/07/19 03:22:45;;;;;;;;;;;;;;;17.78;60.18;100320.31;4475679;32;19992;-92
2022/07/19 03:25:10;;;;;;;;;;;;;;;17.79;60.18;100329.91;4476048;32;19972;-92
2022/07/19 03:27:35;;;;;;;;;;;;;;;18.10;60.20;100330.91;4475405;32;20316;-91
2022/07/19 03:30:01;;;;;;;;;;;;;;;17.97;60.19;100337.75;4479602;32;19984;-92
2022/07/19 03:32:26;;;;;;;;;;;;;;;17.87;60.19;100333.91;4478592;32;19972;-91
2022/07/19 03:34:51;;;;;;;;;;;;;;;17.89;60.18;100340.81;4473932;32;20021;-92
2022/07/19 03:37:16;;;;;;;;;;;;;;;17.88;60.19;100338.25;4474333;32;20021;-92
2022/07/19 03:39:42;;;;;;;;;;;;;;;17.92;60.19;100339.78;4474966;32;19977;-92
2022/07/19 03:42:07;;;;;;;;;;;;;;;18.05;60.19;100346.97;4474554;32;20034;-92
2022/07/19 03:44:33;;;;;;;;;;;;;;;17.85;60.18;100341.06;4488580;32;20089;-92
2022/07/19 03:46:58;;;;;;;;;;;;;;;17.72;60.18;100346.94;4476425;32;20049;-92
2022/07/19 03:49:23;;;;;;;;;;;;;;;17.63;60.17;100346.56;4475856;32;20111;-92
2022/07/19 03:51:49;;;;;;;;;;;;;;;17.76;60.17;100363.47;4489841;32;19981;-92
2022/07/19 03:54:14;;;;;;;;;;;;;;;17.59;60.16;100355.53;4473329;32;19999;-92
2022/07/19 03:56:39;;;;;;;;;;;;;;;17.69;60.17;100360.28;4473182;32;20000;-91
2022/07/19 03:59:04;;;;;;;;;;;;;;;17.89;60.18;100353.13;4473160;32;20028;-92
2022/07/19 04:01:30;;;;;;;;;;;;;;;18.01;60.19;100357.75;4486614;32;20313;-92
2022/07/19 04:03:55;;;;;;;;;;;;;;;18.04;60.19;100358.44;4473288;32;19997;-92
2022/07/19 04:06:20;;;;;;;;;;;;;;;18.28;60.20;100360.69;4473093;32;19980;-92
2022/07/19 04:08:46;;;;;;;;;;;;;;;18.35;60.21;100362.06;4473372;32;19988;-92
2022/07/19 04:11:11;;;;;;;;;;;;;;;18.72;60.22;100366.22;4473043;32;20315;-92
2022/07/19 04:13:36;;;;;;;;;;;;;;;18.61;60.23;100369.37;4475571;32;20301;-92
2022/07/19 04:16:01;;;;;;;;;;;;;;;18.68;60.22;100369.91;4473250;32;20134;-93
2022/07/19 04:18:27;;;;;;;;;;;;;;;18.79;60.23;100364.91;4473089;32;19987;-93
2022/07/19 04:20:52;;;;;;;;;;;;;;;18.73;60.22;100362.63;4473125;32;20293;-93
2022/07/19 04:23:17;;;;;;;;;;;;;;;18.73;60.22;100362.63;4472973;32;20039;-92
2022/07/19 04:25:42;;;;;;;;;;;;;;;19.09;60.25;100367.59;4473040;32;19984;-93
2022/07/19 04:28:08;;;;;;;;;;;;;;;19.00;60.25;100371.63;4486271;32;20261;-92
2022/07/19 04:30:33;;;;;;;;;;;;;;;19.02;60.24;100369.75;4473103;32;19980;-92
2022/07/19 04:32:58;;;;;;;;;;;;;;;18.98;60.25;100378.78;4473421;32;19984;-92
2022/07/19 04:35:24;;;;;;;;;;;;;;;19.44;60.26;100370.00;4479459;32;20016;-92
2022/07/19 04:37:49;;;;;;;;;;;;;;;19.27;60.26;100369.19;4476466;32;19991;-93
2022/07/19 04:40:14;;;;;;;;;;;;;;;19.21;60.25;100373.97;4474006;32;20345;-92
2022/07/19 04:42:39;;;;;;;;;;;;;;;19.38;60.27;100375.63;4473871;32;19996;-92
2022/07/19 04:45:05;;;;;;;;;;;;;;;19.42;60.26;100378.00;4472995;32;19985;-92
2022/07/19 04:47:30;;;;;;;;;;;;;;;19.67;60.27;100374.81;4473142;32;20321;-92
2022/07/19 04:49:55;;;;;;;;;;;;;;;19.59;60.27;100374.38;4472992;32;20003;-92
2022/07/19 04:52:21;;;;;;;;;;;;;;;19.54;60.28;100369.37;4473101;32;19980;-93
2022/07/19 04:54:46;;;;;;;;;;;;;;;19.81;60.28;100373.97;4472926;32;19984;-92
2022/07/19 04:57:12;;;;;;;;;;;;;;;19.94;60.29;100369.66;4475203;32;19985;-93
2022/07/19 04:59:37;;;;;;;;;;;;;;;20.02;60.29;100361.25;4473490;32;19976;-93
2022/07/19 05:02:02;;;;;;;;;;;;;;;20.11;60.30;100366.81;4473260;32;20305;-92
2022/07/19 05:04:27;;;;;;;;;;;;;;;20.28;60.31;100352.53;4473227;32;20008;-92
2022/07/19 05:06:56;;;;;;;;;;;;;;;20.50;60.32;100352.91;4473709;32;20013;-92
2022/07/19 05:09:22;;;;;;;;;;;;;;;20.68;60.33;100360.62;4491691;32;19967;-92
2022/07/19 05:11:47;;;;;;;;;;;;;;;20.97;60.34;100362.25;4483827;32;19988;-93
2022/07/19 05:14:13;;;;;;;;;;;;;;;21.24;60.36;100359.59;4475634;32;20336;-93
2022/07/19 05:16:39;;;;;;;;;;;;;;;21.46;60.37;100356.38;4486281;32;19996;-93
2022/07/19 05:19:04;;;;;;;;;;;;;;;21.53;60.37;100355.03;4472694;32;20040;-93
2022/07/19 05:21:29;;;;;;;;;;;;;;;21.63;60.39;100355.22;4473062;32;19993;-92
2022/07/19 05:23:56;;;;;;;;;;;;;;;21.93;60.39;100355.75;4472406;32;20026;-93
2022/07/19 05:26:21;;;;;;;;;;;;;;;22.06;60.40;100353.16;4485763;32;20366;-93
2022/07/19 05:28:47;;;;;;;;;;;;;;;22.29;60.42;100354.19;4472411;32;19981;-92
2022/07/19 05:31:12;;;;;;;;;;;;;;;22.49;60.43;100343.00;4473365;32;19977;-93
2022/07/19 05:33:37;;;;;;;;;;;;;;;22.64;60.44;100346.34;4485650;32;20024;-93
2022/07/19 05:36:02;;;;;;;;;;;;;;;22.68;60.44;100353.09;4472214;32;19972;-93
2022/07/19 05:38:34;;;;;;;;;;;;;;;22.76;60.44;100341.97;4472258;32;20003;-93
2022/07/19 05:40:59;;;;;;;;;;;;;;;22.68;60.44;100339.84;4472890;32;20006;-92
2022/07/19 05:43:24;;;;;;;;;;;;;;;23.00;60.45;100339.34;4472054;32;19988;-92
2022/07/19 05:45:49;;;;;;;;;;;;;;;23.12;60.46;100338.41;4485465;32;19991;-93
2022/07/19 05:48:15;;;;;;;;;;;;;;;23.34;60.47;100343.81;4472465;32;20003;-93
2022/07/19 05:50:40;;;;;;;;;;;;;;;23.26;60.46;100336.41;4487841;32;20004;-92
2022/07/19 05:53:05;;;;;;;;;;;;;;;23.42;60.47;100343.22;4471987;32;20038;-92
2022/07/19 05:55:30;;;;;;;;;;;;;;;23.56;60.47;100343.03;4471963;32;20280;-93
2022/07/19 05:57:56;;;;;;;;;;;;;;;23.61;60.48;100343.53;4472013;32;20003;-93
2022/07/19 06:00:22;;;;;;;;;;;;;;;23.82;60.50;100341.03;4471985;32;19996;-90
2022/07/19 06:02:47;;;;;;;;;;;;;;;24.06;60.51;100341.78;4471962;32;20000;-91
2022/07/19 06:05:13;;;;;;;;;;;;;;;24.27;60.52;100336.56;4472053;32;20301;-90
2022/07/19 06:07:38;;;;;;;;;;;;;;;24.32;60.52;100336.22;4473725;32;19985;-91
2022/07/19 06:10:03;;;;;;;;;;;;;;;24.28;60.52;100330.31;4486977;32;20026;-91
2022/07/19 06:12:29;;;;;;;;;;;;;;;24.56;60.53;100338.75;4473954;32;19988;-90
2022/07/19 06:14:54;;;;;;;;;;;;;;;24.55;60.53;100335.22;4473616;32;19995;-91
2022/07/19 06:17:19;;;;;;;;;;;;;;;24.61;60.54;100340.09;4473515;32;20992;-91
2022/07/19 06:19:44;;;;;;;;;;;;;;;24.85;60.55;100333.72;4473758;32;19980;-91
2022/07/19 06:22:10;;;;;;;;;;;;;;;25.03;60.55;100329.56;4487039;32;19996;-91
2022/07/19 06:24:35;;;;;;;;;;;;;;;25.17;60.56;100323.94;4474214;32;20016;-91
2022/07/19 06:27:00;;;;;;;;;;;;;;;25.27;60.56;100332.84;4474573;32;19976;-91
2022/07/19 06:29:25;;;;;;;;;;;;;;;25.46;60.58;100328.63;4487048;32;20123;-90
2022/07/19 06:31:51;;;;;;;;;;;;;;;25.64;60.58;100333.25;4473648;32;19996;-91
2022/07/19 06:34:16;;;;;;;;;;;;;;;25.97;60.60;100329.50;4473546;32;19985;-90
2022/07/19 06:36:41;;;;;;;;;;;;;;;26.09;60.61;100335.59;4486624;31;20000;-90
2022/07/19 06:39:06;;;;;;;;;;;;;;;26.18;60.62;100331.28;4486784;32;19977;-92
2022/07/19 06:41:32;;;;;;;;;;;;;;;26.37;60.62;100333.19;4473291;32;20021;-90
2022/07/19 06:43:57;;;;;;;;;;;;;;;26.63;60.65;100326.38;4473309;32;19992;-90
2022/07/19 06:46:22;;;;;;;;;;;;;;;27.06;60.66;100326.03;4474162;32;24132;-89
2022/07/19 06:48:47;;;;;;;;;;;;;;;27.30;60.67;100324.75;4487143;32;20297;-90
2022/07/19 06:51:12;;;;;;;;;;;;;;;27.46;60.68;100322.34;4486847;32;19960;-90
2022/07/19 06:53:38;;;;;;;;;;;;;;;27.97;60.71;100321.94;4477182;32;19980;-90
2022/07/19 06:56:03;;;;;;;;;;;;;;;28.28;60.71;100319.84;4486596;32;20021;-89
2022/07/19 06:58:29;;;;;;;;;;;;;;;28.41;60.73;100322.19;4486487;32;20022;-89
2022/07/19 07:00:54;;;;;;;;;;;;;;;28.72;60.74;100314.66;4486576;32;20056;-89
2022/07/19 07:03:20;;;;;;;;;;;;;;;28.64;60.74;100311.91;4473400;32;19985;-89
2022/07/19 07:05:45;;;;;;;;;;;;;;;28.77;60.75;100312.38;4486386;32;19972;-89
2022/07/19 07:08:10;;;;;;;;;;;;;;;28.97;60.75;100313.94;4488889;32;20306;-89
2022/07/19 07:10:35;;;;;;;;;;;;;;;29.07;60.76;100307.63;4486054;32;20877;-89
2022/07/19 07:13:01;;;;;;;;;;;;;;;29.09;60.76;100306.47;4473321;32;19983;-89
2022/07/19 07:15:26;;;;;;;;;;;;;;;29.33;60.78;100304.00;4486483;32;20003;-89
2022/07/19 07:17:51;;;;;;;;;;;;;;;29.46;60.78;100295.59;4485867;32;20000;-90
2022/07/19 07:20:16;;;;;;;;;;;;;;;29.60;60.78;100294.19;4487660;32;19999;-89
2022/07/19 07:22:42;;;;;;;;;;;;;;;30.03;60.80;100293.25;4486506;32;19985;-89
2022/07/19 07:25:07;;;;;;;;;;;;;;;30.06;60.81;100289.41;4486492;32;19997;-89
2022/07/19 07:27:32;;;;;;;;;;;;;;;30.02;60.81;100290.69;4488093;32;20073;-89
2022/07/19 07:29:58;;;;;;;;;;;;;;;30.37;60.83;100295.06;4488436;32;20020;-90
2022/07/19 07:32:26;;;;;;;;;;;;;;;30.32;60.82;100278.59;4487256;32;19968;-89
2022/07/19 07:34:51;;;;;;;;;;;;;;;30.66;60.85;100284.75;4474543;32;19991;-90
2022/07/19 07:37:17;;;;;;;;;;;;;;;30.57;60.83;100279.50;4473844;32;19989;-90
2022/07/19 07:39:42;;;;;;;;;;;;;;;30.73;60.84;100280.38;4487008;32;21237;-90
2022/07/19 07:42:07;;;;;;;;;;;;;;;30.76;60.85;100271.16;4488320;32;20658;-90
2022/07/19 07:44:33;;;;;;;;;;;;;;;30.90;60.85;100277.72;4488472;32;19973;-91
2022/07/19 07:46:58;;;;;;;;;;;;;;;31.06;60.87;100280.41;4473354;32;20061;-91
2022/07/19 07:49:23;;;;;;;;;;;;;;;31.27;60.87;100272.72;4486530;32;19993;-92
2022/07/19 07:51:48;;;;;;;;;;;;;;;31.37;60.87;100283.28;4473224;32;20030;-92
2022/07/19 07:54:14;;;;;;;;;;;;;;;31.49;60.88;100278.38;4473355;32;20322;-91
2022/07/19 07:56:39;;;;;;;;;;;;;;;31.65;60.89;100289.94;4486960;32;20057;-91
2022/07/19 07:59:04;;;;;;;;;;;;;;;31.68;60.89;100280.69;4488213;32;19992;-91
2022/07/19 08:01:30;;;;;;;;;;;;;;;31.86;60.91;100284.03;4487735;32;19977;-90
2022/07/19 08:03:56;;;;;;;;;;;;;;;32.04;60.91;100283.78;4490431;31;19981;-89
2022/07/19 08:06:21;;;;;;;;;;;;;;;32.09;60.91;100281.41;4488316;31;20256;-90
2022/07/19 08:08:47;;;;;;;;;;;;;;;32.35;60.93;100275.75;4473956;32;20033;-91
2022/07/19 08:11:12;;;;;;;;;;;;;;;32.15;60.92;100275.31;4488465;32;19988;-91
2022/07/19 08:13:37;;;;;;;;;;;;;;;32.31;60.93;100280.66;4488218;32;19973;-91
2022/07/19 08:16:02;;;;;;;;;;;;;;;32.26;60.93;100280.34;4486619;32;20010;-90
2022/07/19 08:18:28;;;;;;;;;;;;;;;32.39;60.93;100271.69;4472953;32;20046;-90
2022/07/19 08:20:53;;;;;;;;;;;;;;;32.41;60.93;100275.03;4473015;32;20293;-91
2022/07/19 08:23:18;;;;;;;;;;;;;;;32.47;60.94;100268.13;4487084;32;20000;-91
2022/07/19 08:25:43;;;;;;;;;;;;;;;32.56;60.93;100269.72;4474443;32;19985;-92
2022/07/19 08:28:08;;;;;;;;;;;;;;;32.70;60.95;100276.22;4473617;32;20025;-91
2022/07/19 08:30:34;;;;;;;;;;;;;;;32.73;60.94;100271.31;4480361;32;20000;-91
2022/07/19 08:33:00;;;;;;;;;;;;;;;32.85;60.96;100274.44;4494268;32;20016;-90
2022/07/19 08:35:26;;;;;;;;;;;;;;;32.95;60.95;100261.56;4473349;31;20037;-90
2022/07/19 08:37:51;;;;;;;;;;;;;;;32.96;60.96;100269.47;4485876;32;20008;-90
2022/07/19 08:40:16;;;;;;;;;;;;;;;33.27;60.97;100263.13;4485966;32;19983;-90
2022/07/19 08:42:42;;;;;;;;;;;;;;;33.51;60.98;100260.19;4471972;32;27337;-89
2022/07/19 08:45:08;;;;;;;;;;;;;;;33.75;61.00;100260.94;4486934;31;20013;-90
2022/07/19 08:47:34;;;;;;;;;;;;;;;34.08;61.01;100262.28;4485826;32;20010;-90
2022/07/19 08:49:59;;;;;;;;;;;;;;;34.33;61.02;100259.25;4486131;32;20264;-90
2022/07/19 08:52:24;;;;;;;;;;;;;;;34.63;61.04;100254.59;4486899;32;19976;-90
2022/07/19 08:54:50;;;;;;;;;;;;;;;34.58;61.04;100254.34;4487280;32;19984;-90
2022/07/19 08:57:57;;;;;;;;;;;;;;;34.48;61.03;100251.94;4474122;32;21718;-89
2022/07/19 09:00:04;;;;;;;;;;;;;;;34.53;61.03;100251.34;4481639;32;19977;-90
2022/07/19 09:02:30;;;;;;;;;;;;;;;34.57;61.04;100249.97;4485899;32;20040;-90
2022/07/19 09:04:59;;;;;;;;;;;;;;;34.36;61.03;100248.91;4485802;32;19981;-89
2022/07/19 09:07:24;;;;;;;;;;;;;;;34.01;61.01;100255.94;4486867;31;19988;-90
2022/07/19 09:09:49;;;;;;;;;;;;;;;34.24;61.02;100244.97;4485332;32;19992;-90
2022/07/19 09:12:14;;;;;;;;;;;;;;;34.33;61.02;100241.16;4485561;32;19968;-90
2022/07/19 09:14:40;;;;;;;;;;;;;;;34.64;61.04;100243.59;4486796;32;20373;-90
2022/07/19 09:17:16;;;;;;;;;;;;;;;34.70;61.05;100242.81;4485637;32;20029;-89
2022/07/19 09:19:42;;;;;;;;;;;;;;;34.81;61.04;100238.75;4485559;32;19984;-90
2022/07/19 09:22:09;;;;;;;;;;;;;;;35.05;61.06;100237.53;4473152;32;19999;-90
2022/07/19 09:24:38;;;;;;;;;;;;;;;35.29;61.07;100242.50;4485482;32;20397;-90
2022/07/19 09:27:13;;;;;;;;;;;;;;;35.46;61.08;100232.22;4472387;32;20006;-90
2022/07/19 09:29:39;;;;;;;;;;;;;;;35.66;61.09;100245.88;4472331;32;20387;-90
2022/07/19 09:32:05;;;;;;;;;;;;;;;35.59;61.09;100243.13;4485616;32;20012;-90
2022/07/19 09:34:37;;;;;;;;;;;;;;;35.43;61.08;100235.31;4486435;32;20052;-90
2022/07/19 09:37:09;;;;;;;;;;;;;;;35.19;61.07;100236.59;4487503;32;19988;-91
2022/07/19 09:39:34;;;;;;;;;;;;;;;35.07;61.07;100233.59;4485161;32;19991;-90
2022/07/19 09:42:02;;;;;;;;;;;;;;;34.95;61.06;100235.16;4487803;32;19984;-90
2022/07/19 09:44:28;;;;;;;;;;;;;;;35.02;61.06;100236.06;4485213;32;20019;-89
2022/07/19 09:46:53;;;;;;;;;;;;;;;34.69;61.05;100227.59;4485295;32;20245;-91
2022/07/19 09:49:18;;;;;;;;;;;;;;;34.72;61.04;100238.03;4486141;32;20324;-90
2022/07/19 09:51:43;;;;;;;;;;;;;;;34.53;61.04;100229.72;4484662;32;19989;-91
2022/07/19 09:54:12;;;;;;;;;;;;;;;34.44;61.03;100229.84;4484994;32;20021;-91
2022/07/19 09:56:37;;;;;;;;;;;;;;;34.40;61.03;100225.03;4486241;31;19997;-91
2022/07/19 09:59:03;;;;;;;;;;;;;;;34.20;61.02;100224.78;4485088;32;20245;-91
2022/07/19 10:01:28;;;;;;;;;;;;;;;34.36;61.04;100219.19;4485772;32;20052;-91
2022/07/19 10:03:54;;;;;;;;;;;;;;;34.45;61.04;100220.72;4489322;32;19989;-91
2022/07/19 10:06:21;;;;;;;;;;;;;;;34.57;61.04;100228.34;4496285;32;19992;-91
2022/07/19 10:08:46;;;;;;;;;;;;;;;34.91;61.05;100222.22;4499635;32;19953;-91
2022/07/19 10:11:11;;;;;;;;;;;;;;;35.36;61.07;100219.03;4499255;31;19983;-90
2022/07/19 10:13:36;;;;;;;;;;;;;;;35.63;61.09;100216.47;4497740;31;20306;-90
2022/07/19 10:16:02;;;;;;;;;;;;;;;35.34;61.08;100217.56;4488614;32;20007;-90
2022/07/19 10:18:28;;;;;;;;;;;;;;;35.43;61.08;100216.37;4484622;32;22419;-90
2022/07/19 10:20:53;;;;;;;;;;;;;;;35.43;61.08;100212.81;4484872;32;19968;-90
2022/07/19 10:23:28;;;;;;;;;;;;;;;35.62;61.09;100212.94;4484707;32;19996;-91
2022/07/19 10:25:54;;;;;;;;;;;;;;;35.72;61.10;100215.28;4484766;32;19996;-90
2022/07/19 10:28:32;;;;;;;;;;;;;;;35.84;61.11;100207.44;4471523;32;19995;-90
2022/07/19 10:30:58;;;;;;;;;;;;;;;35.90;61.11;100209.34;4484610;32;20011;-90
2022/07/19 10:33:27;;;;;;;;;;;;;;;35.76;61.10;100208.44;4470624;32;29651;-90
2022/07/19 10:35:52;;;;;;;;;;;;;;;35.51;61.09;100201.84;4484525;32;19992;-90
2022/07/19 10:38:18;;;;;;;;;;;;;;;35.44;61.08;100207.22;4484557;32;20185;-90
2022/07/19 10:40:44;;;;;;;;;;;;;;;35.46;61.08;100207.84;4471245;32;20044;-90
2022/07/19 10:43:12;;;;;;;;;;;;;;;35.38;61.08;100205.31;4471248;32;20038;-90
2022/07/19 10:46:04;;;;;;;;;;;;;;;35.62;61.09;100190.44;4484483;32;20413;-89
2022/07/19 10:48:35;;;;;;;;;;;;;;;35.54;61.09;100196.87;4475666;32;20011;-90
2022/07/19 10:51:00;;;;;;;;;;;;;;;35.52;61.08;100188.12;4484179;32;20003;-91
2022/07/19 10:53:38;;;;;;;;;;;;;;;35.65;61.10;100190.03;4486693;32;19992;-90
2022/07/19 10:56:23;;;;;;;;;;;;;;;35.87;61.10;100190.78;4486403;32;20001;-90
2022/07/19 10:58:58;;;;;;;;;;;;;;;36.04;61.12;100183.13;4474336;32;19977;-90
2022/07/19 11:01:24;;;;;;;;;;;;;;;36.21;61.12;100174.44;4487723;32;19990;-91
2022/07/19 11:03:50;;;;;;;;;;;;;;;36.56;61.14;100168.88;4473316;32;20008;-90
2022/07/19 11:06:21;;;;;;;;;;;;;;;36.92;61.15;100162.22;4473437;32;19992;-90
2022/07/19 11:08:46;;;;;;;;;;;;;;;37.23;61.17;100167.81;4486373;32;19972;-90
2022/07/19 11:11:12;;;;;;;;;;;;;;;37.48;61.17;100152.50;4486420;32;19977;-92
2022/07/19 11:13:38;;;;;;;;;;;;;;;37.54;61.18;100156.25;4473419;32;20002;-91
2022/07/19 11:16:03;;;;;;;;;;;;;;;37.54;61.18;100158.13;4486803;32;19985;-91
2022/07/19 11:18:29;;;;;;;;;;;;;;;37.56;61.18;100151.44;4473766;32;19991;-91
2022/07/19 11:20:58;;;;;;;;;;;;;;;37.72;61.18;100148.25;4474925;32;20324;-92
2022/07/19 11:23:23;;;;;;;;;;;;;;;37.86;61.20;100148.19;4477004;32;20255;-92
2022/07/19 11:25:52;;;;;;;;;;;;;;;37.65;61.19;100152.03;4488721;32;20031;-92
2022/07/19 11:28:23;;;;;;;;;;;;;;;37.82;61.19;100142.34;4474367;32;19995;-93
2022/07/19 11:30:49;;;;;;;;;;;;;;;37.97;61.20;100137.47;4486501;32;20321;-92
2022/07/19 11:33:15;;;;;;;;;;;;;;;38.02;61.20;100134.09;4473150;32;20032;-92
2022/07/19 11:35:40;;;;;;;;;;;;;;;38.31;61.21;100128.06;4473062;32;19952;-92
2022/07/19 11:38:06;;;;;;;;;;;;;;;38.37;61.22;100134.53;4473156;32;20048;-92
2022/07/19 11:40:33;;;;;;;;;;;;;;;38.32;61.21;100127.00;4473182;32;19977;-92
2022/07/19 11:42:59;;;;;;;;;;;;;;;38.29;61.22;100127.44;4473102;32;19984;-92
2022/07/19 11:45:24;;;;;;;;;;;;;;;38.44;61.22;100129.84;4486327;32;20287;-91
2022/07/19 11:47:50;;;;;;;;;;;;;;;38.50;61.23;100119.97;4473009;32;19983;-91
2022/07/19 11:50:16;;;;;;;;;;;;;;;38.57;61.23;100113.44;4473275;32;19973;-91
2022/07/19 11:52:54;;;;;;;;;;;;;;;38.47;61.22;100114.97;4492588;32;19991;-92
2022/07/19 11:55:27;;;;;;;;;;;;;;;38.13;61.21;100113.53;4495280;32;19992;-91
2022/07/19 11:57:52;;;;;;;;;;;;;;;38.07;61.20;100112.50;4474131;32;19995;-92
2022/07/19 12:00:18;;;;;;;;;;;;;;;38.10;61.21;100103.94;4473480;32;19996;-92
2022/07/19 12:03:09;;;;;;;;;;;;;;;38.11;61.20;100102.91;4473400;32;20019;-92
2022/07/19 12:05:38;;;;;;;;;;;;;;;38.16;61.22;100094.06;4484418;31;19977;-92
2022/07/19 12:08:04;;;;;;;;;;;;;;;38.37;61.21;100101.87;4473220;32;19988;-92
2022/07/19 12:10:33;;;;;;;;;;;;;;;38.46;61.22;100097.81;4473720;32;20001;-92
2022/07/19 12:12:58;;;;;;;;;;;;;;;38.50;61.23;100101.75;4487745;31;19987;-91
2022/07/19 12:15:23;;;;;;;;;;;;;;;38.62;61.23;100094.56;4473748;32;19989;-91
2022/07/19 12:17:58;;;;;;;;;;;;;;;38.74;61.24;100093.81;4473003;32;20024;-91
2022/07/19 12:20:23;;;;;;;;;;;;;;;38.67;61.24;100086.56;4472885;32;19976;-90
2022/07/19 12:22:48;;;;;;;;;;;;;;;38.53;61.23;100090.44;4486163;32;20028;-91
2022/07/19 12:25:13;;;;;;;;;;;;;;;38.59;61.23;100088.72;4472497;32;20023;-91
2022/07/19 12:27:40;;;;;;;;;;;;;;;38.68;61.23;100090.97;4472876;32;20107;-92
2022/07/19 12:30:06;;;;;;;;;;;;;;;38.84;61.24;100092.28;4486280;32;19993;-92
2022/07/19 12:32:32;;;;;;;;;;;;;;;38.73;61.23;100094.87;4473228;32;19988;-92